sensor_id;sensor_type;location;lat;lon;timestamp;P1;durP1;ratioP1;P2;durP2;ratioP2
14294;SDS011;7231;59.370;18.016;2022-11-10T00:02:12;12.50;;;5.28;;
14294;SDS011;7231;59.370;18.016;2022-11-10T00:04:40;11.00;;;5.75;;
14294;SDS011;7231;59.370;18.016;2022-11-10T00:07:08;10.40;;;4.93;;
14294;SDS011;7231;59.370;18.016;2022-11-10T00:09:37;8.98;;;5.13;;
14294;SDS011;7231;59.370;18.016;2022-11-10T00:12:05;9.48;;;5.10;;
14294;SDS011;7231;59.370;18.016;2022-11-10T00:14:33;9.90;;;5.32;;
14294;SDS011;7231;59.370;18.016;2022-11-10T00:17:15;14.27;;;5.03;;
14294;SDS011;7231;59.370;18.016;2022-11-10T00:19:43;9.98;;;4.85;;
14294;SDS011;7231;59.370;18.016;2022-11-10T00:22:11;13.43;;;5.18;;
14294;SDS011;7231;59.370;18.016;2022-11-10T00:24:40;10.70;;;4.93;;
14294;SDS011;7231;59.370;18.016;2022-11-10T00:27:10;12.07;;;5.80;;
14294;SDS011;7231;59.370;18.016;2022-11-10T00:29:39;12.98;;;5.90;;
14294;SDS011;7231;59.370;18.016;2022-11-10T00:32:07;11.48;;;5.80;;
14294;SDS011;7231;59.370;18.016;2022-11-10T00:34:35;14.25;;;6.50;;
14294;SDS011;7231;59.370;18.016;2022-11-10T00:37:03;17.05;;;5.80;;
14294;SDS011;7231;59.370;18.016;2022-11-10T00:39:31;11.88;;;5.30;;
14294;SDS011;7231;59.370;18.016;2022-11-10T00:42:00;11.40;;;5.35;;
14294;SDS011;7231;59.370;18.016;2022-11-10T00:44:28;11.15;;;5.30;;
14294;SDS011;7231;59.370;18.016;2022-11-10T00:46:56;11.45;;;5.95;;
14294;SDS011;7231;59.370;18.016;2022-11-10T00:49:24;9.57;;;5.50;;
14294;SDS011;7231;59.370;18.016;2022-11-10T00:51:52;10.88;;;5.05;;
14294;SDS011;7231;59.370;18.016;2022-11-10T00:54:21;15.18;;;5.60;;
14294;SDS011;7231;59.370;18.016;2022-11-10T00:56:48;12.88;;;5.60;;
14294;SDS011;7231;59.370;18.016;2022-11-10T00:59:18;12.52;;;5.68;;
14294;SDS011;7231;59.370;18.016;2022-11-10T01:01:45;17.95;;;5.85;;
14294;SDS011;7231;59.370;18.016;2022-11-10T01:04:14;17.65;;;6.60;;
14294;SDS011;7231;59.370;18.016;2022-11-10T01:06:41;12.38;;;5.63;;
14294;SDS011;7231;59.370;18.016;2022-11-10T01:09:09;11.10;;;5.78;;
14294;SDS011;7231;59.370;18.016;2022-11-10T01:11:37;12.43;;;5.43;;
14294;SDS011;7231;59.370;18.016;2022-11-10T01:14:05;13.85;;;5.68;;
14294;SDS011;7231;59.370;18.016;2022-11-10T01:16:35;11.13;;;5.93;;
14294;SDS011;7231;59.370;18.016;2022-11-10T01:19:03;9.05;;;4.95;;
14294;SDS011;7231;59.370;18.016;2022-11-10T01:21:31;9.05;;;5.55;;
14294;SDS011;7231;59.370;18.016;2022-11-10T01:23:59;9.48;;;5.38;;
14294;SDS011;7231;59.370;18.016;2022-11-10T01:26:27;13.88;;;6.13;;
14294;SDS011;7231;59.370;18.016;2022-11-10T01:28:56;11.68;;;5.68;;
14294;SDS011;7231;59.370;18.016;2022-11-10T01:31:23;9.93;;;5.10;;
14294;SDS011;7231;59.370;18.016;2022-11-10T01:33:53;13.73;;;5.57;;
14294;SDS011;7231;59.370;18.016;2022-11-10T01:36:21;11.27;;;5.68;;
14294;SDS011;7231;59.370;18.016;2022-11-10T01:38:49;13.38;;;5.40;;
14294;SDS011;7231;59.370;18.016;2022-11-10T01:41:17;9.70;;;5.28;;
14294;SDS011;7231;59.370;18.016;2022-11-10T01:43:45;12.80;;;5.53;;
14294;SDS011;7231;59.370;18.016;2022-11-10T01:46:13;14.13;;;5.55;;
14294;SDS011;7231;59.370;18.016;2022-11-10T01:48:43;10.75;;;5.47;;
14294;SDS011;7231;59.370;18.016;2022-11-10T01:51:16;12.85;;;4.90;;
14294;SDS011;7231;59.370;18.016;2022-11-10T01:53:49;14.98;;;5.63;;
14294;SDS011;7231;59.370;18.016;2022-11-10T01:56:20;13.68;;;5.97;;
14294;SDS011;7231;59.370;18.016;2022-11-10T01:58:51;11.55;;;5.70;;
14294;SDS011;7231;59.370;18.016;2022-11-10T02:01:23;18.45;;;6.32;;
14294;SDS011;7231;59.370;18.016;2022-11-10T02:03:52;10.25;;;5.53;;
14294;SDS011;7231;59.370;18.016;2022-11-10T02:06:24;12.10;;;5.60;;
14294;SDS011;7231;59.370;18.016;2022-11-10T02:09:02;12.63;;;5.47;;
14294;SDS011;7231;59.370;18.016;2022-11-10T02:11:30;11.20;;;5.60;;
14294;SDS011;7231;59.370;18.016;2022-11-10T02:13:59;15.38;;;6.20;;
14294;SDS011;7231;59.370;18.016;2022-11-10T02:16:28;11.23;;;5.22;;
14294;SDS011;7231;59.370;18.016;2022-11-10T02:18:56;9.35;;;5.80;;
14294;SDS011;7231;59.370;18.016;2022-11-10T02:21:25;13.45;;;5.78;;
14294;SDS011;7231;59.370;18.016;2022-11-10T02:23:53;15.57;;;5.40;;
14294;SDS011;7231;59.370;18.016;2022-11-10T02:26:22;12.00;;;5.85;;
14294;SDS011;7231;59.370;18.016;2022-11-10T02:28:52;10.40;;;5.28;;
14294;SDS011;7231;59.370;18.016;2022-11-10T02:31:21;10.90;;;5.22;;
14294;SDS011;7231;59.370;18.016;2022-11-10T02:33:49;16.27;;;6.00;;
14294;SDS011;7231;59.370;18.016;2022-11-10T02:36:17;15.23;;;5.95;;
14294;SDS011;7231;59.370;18.016;2022-11-10T02:38:46;14.32;;;5.30;;
14294;SDS011;7231;59.370;18.016;2022-11-10T02:41:14;16.98;;;5.28;;
14294;SDS011;7231;59.370;18.016;2022-11-10T02:43:42;11.45;;;5.00;;
14294;SDS011;7231;59.370;18.016;2022-11-10T02:46:10;13.30;;;4.88;;
14294;SDS011;7231;59.370;18.016;2022-11-10T02:48:38;13.35;;;5.00;;
14294;SDS011;7231;59.370;18.016;2022-11-10T02:51:06;10.02;;;4.82;;
14294;SDS011;7231;59.370;18.016;2022-11-10T02:53:35;11.27;;;4.97;;
14294;SDS011;7231;59.370;18.016;2022-11-10T02:56:04;11.90;;;4.80;;
14294;SDS011;7231;59.370;18.016;2022-11-10T02:58:32;10.57;;;4.35;;
14294;SDS011;7231;59.370;18.016;2022-11-10T03:01:02;10.98;;;4.28;;
14294;SDS011;7231;59.370;18.016;2022-11-10T03:03:32;8.85;;;4.22;;
14294;SDS011;7231;59.370;18.016;2022-11-10T03:06:00;11.02;;;4.22;;
14294;SDS011;7231;59.370;18.016;2022-11-10T03:08:28;10.07;;;4.68;;
14294;SDS011;7231;59.370;18.016;2022-11-10T03:10:56;13.20;;;4.35;;
14294;SDS011;7231;59.370;18.016;2022-11-10T03:13:26;6.63;;;4.20;;
14294;SDS011;7231;59.370;18.016;2022-11-10T03:16:16;10.40;;;4.10;;
14294;SDS011;7231;59.370;18.016;2022-11-10T03:18:44;10.18;;;3.88;;
14294;SDS011;7231;59.370;18.016;2022-11-10T03:21:13;11.63;;;4.50;;
14294;SDS011;7231;59.370;18.016;2022-11-10T03:23:41;9.73;;;4.20;;
14294;SDS011;7231;59.370;18.016;2022-11-10T03:26:09;9.13;;;3.63;;
14294;SDS011;7231;59.370;18.016;2022-11-10T03:28:38;11.98;;;4.47;;
14294;SDS011;7231;59.370;18.016;2022-11-10T03:31:06;10.55;;;3.72;;
14294;SDS011;7231;59.370;18.016;2022-11-10T03:33:34;8.45;;;3.97;;
14294;SDS011;7231;59.370;18.016;2022-11-10T03:36:02;8.85;;;4.22;;
14294;SDS011;7231;59.370;18.016;2022-11-10T03:38:31;9.52;;;3.85;;
14294;SDS011;7231;59.370;18.016;2022-11-10T03:40:58;9.95;;;4.57;;
14294;SDS011;7231;59.370;18.016;2022-11-10T03:43:46;8.95;;;3.97;;
14294;SDS011;7231;59.370;18.016;2022-11-10T03:46:14;8.40;;;4.57;;
14294;SDS011;7231;59.370;18.016;2022-11-10T03:48:43;6.85;;;4.13;;
14294;SDS011;7231;59.370;18.016;2022-11-10T03:51:18;11.27;;;5.00;;
14294;SDS011;7231;59.370;18.016;2022-11-10T03:53:46;12.43;;;4.20;;
14294;SDS011;7231;59.370;18.016;2022-11-10T03:56:14;11.82;;;4.55;;
14294;SDS011;7231;59.370;18.016;2022-11-10T03:58:42;10.02;;;4.25;;
14294;SDS011;7231;59.370;18.016;2022-11-10T04:01:11;13.23;;;3.78;;
14294;SDS011;7231;59.370;18.016;2022-11-10T04:03:39;9.75;;;4.07;;
14294;SDS011;7231;59.370;18.016;2022-11-10T04:06:11;9.70;;;4.10;;
14294;SDS011;7231;59.370;18.016;2022-11-10T04:08:57;8.77;;;3.70;;
14294;SDS011;7231;59.370;18.016;2022-11-10T04:11:28;12.90;;;4.65;;
14294;SDS011;7231;59.370;18.016;2022-11-10T04:14:14;9.65;;;3.72;;
14294;SDS011;7231;59.370;18.016;2022-11-10T04:17:01;10.48;;;4.32;;
14294;SDS011;7231;59.370;18.016;2022-11-10T04:19:30;9.95;;;3.90;;
14294;SDS011;7231;59.370;18.016;2022-11-10T04:21:58;12.90;;;4.25;;
14294;SDS011;7231;59.370;18.016;2022-11-10T04:24:26;9.95;;;4.05;;
14294;SDS011;7231;59.370;18.016;2022-11-10T04:26:54;10.15;;;4.50;;
14294;SDS011;7231;59.370;18.016;2022-11-10T04:29:22;12.00;;;3.35;;
14294;SDS011;7231;59.370;18.016;2022-11-10T04:31:50;10.77;;;3.95;;
14294;SDS011;7231;59.370;18.016;2022-11-10T04:34:19;13.18;;;4.00;;
14294;SDS011;7231;59.370;18.016;2022-11-10T04:36:47;12.98;;;4.20;;
14294;SDS011;7231;59.370;18.016;2022-11-10T04:39:15;11.70;;;4.57;;
14294;SDS011;7231;59.370;18.016;2022-11-10T04:41:43;12.15;;;4.45;;
14294;SDS011;7231;59.370;18.016;2022-11-10T04:44:12;14.90;;;4.43;;
14294;SDS011;7231;59.370;18.016;2022-11-10T04:46:40;11.00;;;4.00;;
14294;SDS011;7231;59.370;18.016;2022-11-10T04:49:09;10.35;;;3.75;;
14294;SDS011;7231;59.370;18.016;2022-11-10T04:51:39;10.40;;;3.20;;
14294;SDS011;7231;59.370;18.016;2022-11-10T04:54:07;9.95;;;3.00;;
14294;SDS011;7231;59.370;18.016;2022-11-10T04:56:36;11.07;;;4.15;;
14294;SDS011;7231;59.370;18.016;2022-11-10T04:59:05;12.77;;;3.90;;
14294;SDS011;7231;59.370;18.016;2022-11-10T05:01:33;8.77;;;3.30;;
14294;SDS011;7231;59.370;18.016;2022-11-10T05:04:01;7.47;;;3.08;;
14294;SDS011;7231;59.370;18.016;2022-11-10T05:06:30;10.25;;;3.65;;
14294;SDS011;7231;59.370;18.016;2022-11-10T05:09:00;14.48;;;4.00;;
14294;SDS011;7231;59.370;18.016;2022-11-10T05:11:28;12.13;;;3.60;;
14294;SDS011;7231;59.370;18.016;2022-11-10T05:13:56;10.75;;;3.67;;
14294;SDS011;7231;59.370;18.016;2022-11-10T05:16:24;14.73;;;3.95;;
14294;SDS011;7231;59.370;18.016;2022-11-10T05:18:52;7.47;;;3.65;;
14294;SDS011;7231;59.370;18.016;2022-11-10T05:21:21;10.80;;;3.63;;
14294;SDS011;7231;59.370;18.016;2022-11-10T05:23:49;14.20;;;3.92;;
14294;SDS011;7231;59.370;18.016;2022-11-10T05:26:18;10.38;;;3.80;;
14294;SDS011;7231;59.370;18.016;2022-11-10T05:28:46;9.45;;;3.63;;
14294;SDS011;7231;59.370;18.016;2022-11-10T05:31:14;15.10;;;3.97;;
14294;SDS011;7231;59.370;18.016;2022-11-10T05:33:42;9.55;;;2.75;;
14294;SDS011;7231;59.370;18.016;2022-11-10T05:36:10;6.50;;;3.22;;
14294;SDS011;7231;59.370;18.016;2022-11-10T05:38:38;9.13;;;3.63;;
14294;SDS011;7231;59.370;18.016;2022-11-10T05:41:09;9.48;;;3.38;;
14294;SDS011;7231;59.370;18.016;2022-11-10T05:43:38;10.55;;;3.97;;
14294;SDS011;7231;59.370;18.016;2022-11-10T05:46:06;10.80;;;3.47;;
14294;SDS011;7231;59.370;18.016;2022-11-10T05:48:34;8.38;;;3.30;;
14294;SDS011;7231;59.370;18.016;2022-11-10T05:51:02;13.88;;;3.97;;
14294;SDS011;7231;59.370;18.016;2022-11-10T05:53:30;11.23;;;3.33;;
14294;SDS011;7231;59.370;18.016;2022-11-10T05:55:58;8.73;;;3.67;;
14294;SDS011;7231;59.370;18.016;2022-11-10T05:58:26;10.95;;;4.10;;
14294;SDS011;7231;59.370;18.016;2022-11-10T06:00:56;11.05;;;3.78;;
14294;SDS011;7231;59.370;18.016;2022-11-10T06:03:24;8.77;;;3.65;;
14294;SDS011;7231;59.370;18.016;2022-11-10T06:05:52;8.20;;;3.47;;
14294;SDS011;7231;59.370;18.016;2022-11-10T06:08:20;12.32;;;3.72;;
14294;SDS011;7231;59.370;18.016;2022-11-10T06:10:48;12.90;;;4.13;;
14294;SDS011;7231;59.370;18.016;2022-11-10T06:13:16;6.35;;;3.90;;
14294;SDS011;7231;59.370;18.016;2022-11-10T06:15:44;11.50;;;4.38;;
14294;SDS011;7231;59.370;18.016;2022-11-10T06:18:17;14.05;;;4.10;;
14294;SDS011;7231;59.370;18.016;2022-11-10T06:20:45;8.45;;;4.20;;
14294;SDS011;7231;59.370;18.016;2022-11-10T06:23:13;14.95;;;4.32;;
14294;SDS011;7231;59.370;18.016;2022-11-10T06:25:41;12.63;;;4.60;;
14294;SDS011;7231;59.370;18.016;2022-11-10T06:28:10;10.15;;;4.63;;
14294;SDS011;7231;59.370;18.016;2022-11-10T06:30:38;9.25;;;4.30;;
14294;SDS011;7231;59.370;18.016;2022-11-10T06:33:06;12.18;;;4.60;;
14294;SDS011;7231;59.370;18.016;2022-11-10T06:35:36;9.95;;;3.63;;
14294;SDS011;7231;59.370;18.016;2022-11-10T06:38:05;9.38;;;4.47;;
14294;SDS011;7231;59.370;18.016;2022-11-10T06:40:34;6.88;;;4.13;;
14294;SDS011;7231;59.370;18.016;2022-11-10T06:43:03;13.73;;;4.80;;
14294;SDS011;7231;59.370;18.016;2022-11-10T06:45:31;12.80;;;4.65;;
14294;SDS011;7231;59.370;18.016;2022-11-10T06:47:59;16.95;;;5.13;;
14294;SDS011;7231;59.370;18.016;2022-11-10T06:50:28;14.25;;;4.85;;
14294;SDS011;7231;59.370;18.016;2022-11-10T06:52:58;10.45;;;4.47;;
14294;SDS011;7231;59.370;18.016;2022-11-10T06:55:27;15.27;;;5.30;;
14294;SDS011;7231;59.370;18.016;2022-11-10T06:57:55;11.63;;;5.53;;
14294;SDS011;7231;59.370;18.016;2022-11-10T07:00:24;10.10;;;5.25;;
14294;SDS011;7231;59.370;18.016;2022-11-10T07:02:59;14.18;;;5.18;;
14294;SDS011;7231;59.370;18.016;2022-11-10T07:05:28;12.60;;;5.00;;
14294;SDS011;7231;59.370;18.016;2022-11-10T07:08:01;11.88;;;4.80;;
14294;SDS011;7231;59.370;18.016;2022-11-10T07:10:30;11.10;;;5.15;;
14294;SDS011;7231;59.370;18.016;2022-11-10T07:12:59;13.70;;;5.10;;
14294;SDS011;7231;59.370;18.016;2022-11-10T07:15:28;17.42;;;5.65;;
14294;SDS011;7231;59.370;18.016;2022-11-10T07:17:56;14.98;;;5.28;;
14294;SDS011;7231;59.370;18.016;2022-11-10T07:20:24;14.50;;;6.18;;
14294;SDS011;7231;59.370;18.016;2022-11-10T07:22:56;9.30;;;4.75;;
14294;SDS011;7231;59.370;18.016;2022-11-10T07:25:27;11.48;;;5.53;;
14294;SDS011;7231;59.370;18.016;2022-11-10T07:27:58;14.45;;;5.20;;
14294;SDS011;7231;59.370;18.016;2022-11-10T07:30:28;10.38;;;5.93;;
14294;SDS011;7231;59.370;18.016;2022-11-10T07:32:58;10.80;;;5.05;;
14294;SDS011;7231;59.370;18.016;2022-11-10T07:35:27;12.35;;;5.60;;
14294;SDS011;7231;59.370;18.016;2022-11-10T07:37:56;15.75;;;5.85;;
14294;SDS011;7231;59.370;18.016;2022-11-10T07:40:29;11.65;;;4.85;;
14294;SDS011;7231;59.370;18.016;2022-11-10T07:42:57;13.93;;;5.05;;
14294;SDS011;7231;59.370;18.016;2022-11-10T07:45:25;12.98;;;6.00;;
14294;SDS011;7231;59.370;18.016;2022-11-10T07:47:56;11.85;;;5.03;;
14294;SDS011;7231;59.370;18.016;2022-11-10T07:50:25;12.05;;;5.68;;
14294;SDS011;7231;59.370;18.016;2022-11-10T07:53:00;14.85;;;6.18;;
14294;SDS011;7231;59.370;18.016;2022-11-10T07:55:31;12.48;;;5.85;;
14294;SDS011;7231;59.370;18.016;2022-11-10T07:57:59;14.63;;;5.70;;
14294;SDS011;7231;59.370;18.016;2022-11-10T08:00:27;15.65;;;6.78;;
14294;SDS011;7231;59.370;18.016;2022-11-10T08:02:59;12.23;;;5.70;;
14294;SDS011;7231;59.370;18.016;2022-11-10T08:05:29;13.02;;;5.28;;
14294;SDS011;7231;59.370;18.016;2022-11-10T08:07:57;12.52;;;5.22;;
14294;SDS011;7231;59.370;18.016;2022-11-10T08:10:25;11.60;;;5.10;;
14294;SDS011;7231;59.370;18.016;2022-11-10T08:12:55;12.93;;;4.85;;
14294;SDS011;7231;59.370;18.016;2022-11-10T08:15:25;12.88;;;5.40;;
14294;SDS011;7231;59.370;18.016;2022-11-10T08:17:56;10.98;;;4.30;;
14294;SDS011;7231;59.370;18.016;2022-11-10T08:20:25;6.57;;;3.95;;
14294;SDS011;7231;59.370;18.016;2022-11-10T08:22:56;10.35;;;4.40;;
14294;SDS011;7231;59.370;18.016;2022-11-10T08:25:25;14.23;;;4.63;;
14294;SDS011;7231;59.370;18.016;2022-11-10T08:28:02;16.45;;;4.50;;
14294;SDS011;7231;59.370;18.016;2022-11-10T08:30:32;11.95;;;4.53;;
14294;SDS011;7231;59.370;18.016;2022-11-10T08:33:02;13.40;;;5.07;;
14294;SDS011;7231;59.370;18.016;2022-11-10T08:35:33;12.52;;;4.70;;
14294;SDS011;7231;59.370;18.016;2022-11-10T08:38:06;15.68;;;4.88;;
14294;SDS011;7231;59.370;18.016;2022-11-10T08:40:35;10.20;;;4.05;;
14294;SDS011;7231;59.370;18.016;2022-11-10T08:43:05;13.23;;;3.83;;
14294;SDS011;7231;59.370;18.016;2022-11-10T08:45:34;12.48;;;4.15;;
14294;SDS011;7231;59.370;18.016;2022-11-10T08:48:03;14.13;;;4.05;;
14294;SDS011;7231;59.370;18.016;2022-11-10T08:50:32;11.95;;;3.88;;
14294;SDS011;7231;59.370;18.016;2022-11-10T08:53:01;10.30;;;3.42;;
14294;SDS011;7231;59.370;18.016;2022-11-10T08:55:30;12.00;;;3.47;;
14294;SDS011;7231;59.370;18.016;2022-11-10T08:57:59;10.80;;;3.55;;
14294;SDS011;7231;59.370;18.016;2022-11-10T09:00:29;8.70;;;3.70;;
14294;SDS011;7231;59.370;18.016;2022-11-10T09:03:02;10.65;;;3.65;;
14294;SDS011;7231;59.370;18.016;2022-11-10T09:05:31;9.27;;;3.42;;
14294;SDS011;7231;59.370;18.016;2022-11-10T09:08:00;9.30;;;2.85;;
14294;SDS011;7231;59.370;18.016;2022-11-10T09:10:29;12.48;;;4.00;;
14294;SDS011;7231;59.370;18.016;2022-11-10T09:12:57;11.52;;;3.75;;
14294;SDS011;7231;59.370;18.016;2022-11-10T09:15:26;10.48;;;3.20;;
14294;SDS011;7231;59.370;18.016;2022-11-10T09:17:56;5.53;;;2.00;;
14294;SDS011;7231;59.370;18.016;2022-11-10T09:20:25;5.32;;;2.17;;
14294;SDS011;7231;59.370;18.016;2022-11-10T09:22:54;7.80;;;2.53;;
14294;SDS011;7231;59.370;18.016;2022-11-10T09:25:23;11.55;;;2.78;;
14294;SDS011;7231;59.370;18.016;2022-11-10T09:27:51;6.70;;;2.03;;
14294;SDS011;7231;59.370;18.016;2022-11-10T09:30:18;12.50;;;2.58;;
14294;SDS011;7231;59.370;18.016;2022-11-10T09:32:52;8.32;;;2.60;;
14294;SDS011;7231;59.370;18.016;2022-11-10T09:35:21;11.32;;;2.42;;
14294;SDS011;7231;59.370;18.016;2022-11-10T09:37:49;8.82;;;2.45;;
14294;SDS011;7231;59.370;18.016;2022-11-10T09:40:18;11.13;;;2.80;;
14294;SDS011;7231;59.370;18.016;2022-11-10T09:42:52;6.97;;;2.13;;
14294;SDS011;7231;59.370;18.016;2022-11-10T09:45:22;6.85;;;1.95;;
14294;SDS011;7231;59.370;18.016;2022-11-10T09:47:56;10.75;;;2.45;;
14294;SDS011;7231;59.370;18.016;2022-11-10T09:50:28;9.85;;;2.78;;
14294;SDS011;7231;59.370;18.016;2022-11-10T09:53:02;7.28;;;2.15;;
14294;SDS011;7231;59.370;18.016;2022-11-10T09:55:34;10.45;;;2.47;;
14294;SDS011;7231;59.370;18.016;2022-11-10T09:58:05;9.40;;;2.40;;
14294;SDS011;7231;59.370;18.016;2022-11-10T10:00:37;10.02;;;2.03;;
14294;SDS011;7231;59.370;18.016;2022-11-10T10:03:12;7.90;;;2.13;;
14294;SDS011;7231;59.370;18.016;2022-11-10T10:05:49;12.23;;;2.50;;
14294;SDS011;7231;59.370;18.016;2022-11-10T10:08:30;7.05;;;2.60;;
14294;SDS011;7231;59.370;18.016;2022-11-10T10:11:13;6.35;;;2.00;;
14294;SDS011;7231;59.370;18.016;2022-11-10T10:14:12;7.72;;;2.05;;
14294;SDS011;7231;59.370;18.016;2022-11-10T10:16:50;8.55;;;2.53;;
14294;SDS011;7231;59.370;18.016;2022-11-10T10:19:29;9.85;;;2.53;;
14294;SDS011;7231;59.370;18.016;2022-11-10T10:22:11;5.93;;;1.98;;
14294;SDS011;7231;59.370;18.016;2022-11-10T10:24:54;7.43;;;1.80;;
14294;SDS011;7231;59.370;18.016;2022-11-10T10:27:28;9.57;;;2.70;;
14294;SDS011;7231;59.370;18.016;2022-11-10T10:29:58;11.77;;;2.50;;
14294;SDS011;7231;59.370;18.016;2022-11-10T10:32:26;7.32;;;2.85;;
14294;SDS011;7231;59.370;18.016;2022-11-10T10:34:56;10.10;;;2.97;;
14294;SDS011;7231;59.370;18.016;2022-11-10T10:37:25;8.95;;;2.75;;
14294;SDS011;7231;59.370;18.016;2022-11-10T10:40:07;7.63;;;1.98;;
14294;SDS011;7231;59.370;18.016;2022-11-10T10:42:40;7.82;;;2.33;;
14294;SDS011;7231;59.370;18.016;2022-11-10T10:45:11;10.60;;;2.58;;
14294;SDS011;7231;59.370;18.016;2022-11-10T10:47:44;6.65;;;2.90;;
14294;SDS011;7231;59.370;18.016;2022-11-10T10:53:13;8.48;;;2.22;;
14294;SDS011;7231;59.370;18.016;2022-11-10T10:55:46;6.80;;;1.98;;
14294;SDS011;7231;59.370;18.016;2022-11-10T10:58:22;7.28;;;2.00;;
14294;SDS011;7231;59.370;18.016;2022-11-10T11:00:54;9.15;;;2.10;;
14294;SDS011;7231;59.370;18.016;2022-11-10T11:03:28;9.35;;;2.35;;
14294;SDS011;7231;59.370;18.016;2022-11-10T11:06:02;9.07;;;2.00;;
14294;SDS011;7231;59.370;18.016;2022-11-10T11:08:33;6.35;;;1.60;;
14294;SDS011;7231;59.370;18.016;2022-11-10T11:11:08;10.82;;;2.72;;
14294;SDS011;7231;59.370;18.016;2022-11-10T11:13:38;9.60;;;2.30;;
14294;SDS011;7231;59.370;18.016;2022-11-10T11:16:07;9.00;;;2.60;;
14294;SDS011;7231;59.370;18.016;2022-11-10T11:18:37;7.00;;;1.90;;
14294;SDS011;7231;59.370;18.016;2022-11-10T11:21:09;8.48;;;2.25;;
14294;SDS011;7231;59.370;18.016;2022-11-10T11:23:56;12.32;;;2.67;;
14294;SDS011;7231;59.370;18.016;2022-11-10T11:26:38;7.57;;;1.85;;
14294;SDS011;7231;59.370;18.016;2022-11-10T11:29:19;7.13;;;1.88;;
14294;SDS011;7231;59.370;18.016;2022-11-10T11:32:02;7.72;;;1.70;;
14294;SDS011;7231;59.370;18.016;2022-11-10T11:34:42;8.18;;;1.90;;
14294;SDS011;7231;59.370;18.016;2022-11-10T11:37:23;6.25;;;1.58;;
14294;SDS011;7231;59.370;18.016;2022-11-10T11:39:59;9.13;;;2.10;;
14294;SDS011;7231;59.370;18.016;2022-11-10T11:42:42;8.25;;;2.13;;
14294;SDS011;7231;59.370;18.016;2022-11-10T11:45:22;8.30;;;1.83;;
14294;SDS011;7231;59.370;18.016;2022-11-10T11:48:01;9.48;;;2.28;;
14294;SDS011;7231;59.370;18.016;2022-11-10T11:50:39;9.48;;;2.00;;
14294;SDS011;7231;59.370;18.016;2022-11-10T11:53:14;9.60;;;1.88;;
14294;SDS011;7231;59.370;18.016;2022-11-10T11:55:57;10.50;;;2.00;;
14294;SDS011;7231;59.370;18.016;2022-11-10T11:58:38;6.47;;;1.65;;
14294;SDS011;7231;59.370;18.016;2022-11-10T12:01:14;8.48;;;1.60;;
14294;SDS011;7231;59.370;18.016;2022-11-10T12:07:02;10.35;;;2.08;;
14294;SDS011;7231;59.370;18.016;2022-11-10T12:09:43;9.40;;;1.90;;
14294;SDS011;7231;59.370;18.016;2022-11-10T12:12:18;11.00;;;1.83;;
14294;SDS011;7231;59.370;18.016;2022-11-10T12:14:57;5.68;;;1.60;;
14294;SDS011;7231;59.370;18.016;2022-11-10T12:17:36;9.35;;;1.50;;
14294;SDS011;7231;59.370;18.016;2022-11-10T12:20:17;8.23;;;2.00;;
14294;SDS011;7231;59.370;18.016;2022-11-10T12:22:54;10.05;;;2.08;;
14294;SDS011;7231;59.370;18.016;2022-11-10T12:25:32;7.95;;;2.00;;
14294;SDS011;7231;59.370;18.016;2022-11-10T12:28:08;9.35;;;2.25;;
14294;SDS011;7231;59.370;18.016;2022-11-10T12:30:42;6.20;;;1.98;;
14294;SDS011;7231;59.370;18.016;2022-11-10T12:33:13;12.75;;;2.00;;
14294;SDS011;7231;59.370;18.016;2022-11-10T12:35:47;11.30;;;2.30;;
14294;SDS011;7231;59.370;18.016;2022-11-10T12:38:18;10.30;;;1.90;;
14294;SDS011;7231;59.370;18.016;2022-11-10T12:40:53;9.98;;;2.10;;
14294;SDS011;7231;59.370;18.016;2022-11-10T12:43:29;9.80;;;2.35;;
14294;SDS011;7231;59.370;18.016;2022-11-10T12:46:02;11.63;;;2.10;;
14294;SDS011;7231;59.370;18.016;2022-11-10T12:48:35;9.30;;;2.30;;
14294;SDS011;7231;59.370;18.016;2022-11-10T12:51:11;9.60;;;2.53;;
14294;SDS011;7231;59.370;18.016;2022-11-10T12:53:47;6.75;;;1.40;;
14294;SDS011;7231;59.370;18.016;2022-11-10T12:56:17;9.63;;;1.70;;
14294;SDS011;7231;59.370;18.016;2022-11-10T12:58:56;7.63;;;1.63;;
14294;SDS011;7231;59.370;18.016;2022-11-10T13:01:41;7.57;;;1.85;;
14294;SDS011;7231;59.370;18.016;2022-11-10T13:04:12;6.22;;;1.40;;
14294;SDS011;7231;59.370;18.016;2022-11-10T13:06:44;7.47;;;1.70;;
14294;SDS011;7231;59.370;18.016;2022-11-10T13:09:21;12.18;;;2.28;;
14294;SDS011;7231;59.370;18.016;2022-11-10T13:14:46;4.13;;;1.08;;
14294;SDS011;7231;59.370;18.016;2022-11-10T13:23:23;9.05;;;1.83;;
14294;SDS011;7231;59.370;18.016;2022-11-10T13:25:53;7.28;;;1.80;;
14294;SDS011;7231;59.370;18.016;2022-11-10T13:34:27;7.60;;;2.25;;
14294;SDS011;7231;59.370;18.016;2022-11-10T13:36:57;11.95;;;2.20;;
14294;SDS011;7231;59.370;18.016;2022-11-10T13:39:27;9.50;;;2.05;;
14294;SDS011;7231;59.370;18.016;2022-11-10T13:42:00;7.45;;;1.98;;
14294;SDS011;7231;59.370;18.016;2022-11-10T13:44:44;8.60;;;1.67;;
14294;SDS011;7231;59.370;18.016;2022-11-10T13:47:18;12.07;;;2.15;;
14294;SDS011;7231;59.370;18.016;2022-11-10T13:50:07;7.90;;;1.70;;
14294;SDS011;7231;59.370;18.016;2022-11-10T13:52:50;13.75;;;1.90;;
14294;SDS011;7231;59.370;18.016;2022-11-10T13:55:29;8.88;;;1.83;;
14294;SDS011;7231;59.370;18.016;2022-11-10T13:58:07;10.82;;;1.85;;
14294;SDS011;7231;59.370;18.016;2022-11-10T14:00:48;11.10;;;1.60;;
14294;SDS011;7231;59.370;18.016;2022-11-10T14:06:21;6.90;;;2.15;;
14294;SDS011;7231;59.370;18.016;2022-11-10T14:08:52;11.32;;;1.73;;
14294;SDS011;7231;59.370;18.016;2022-11-10T14:11:24;10.60;;;2.25;;
14294;SDS011;7231;59.370;18.016;2022-11-10T14:14:01;7.25;;;1.75;;
14294;SDS011;7231;59.370;18.016;2022-11-10T14:16:40;13.00;;;2.58;;
14294;SDS011;7231;59.370;18.016;2022-11-10T14:19:17;9.85;;;2.03;;
14294;SDS011;7231;59.370;18.016;2022-11-10T14:21:52;13.80;;;2.33;;
14294;SDS011;7231;59.370;18.016;2022-11-10T14:24:25;8.30;;;1.88;;
14294;SDS011;7231;59.370;18.016;2022-11-10T14:26:55;12.88;;;1.88;;
14294;SDS011;7231;59.370;18.016;2022-11-10T14:29:27;12.55;;;2.10;;
14294;SDS011;7231;59.370;18.016;2022-11-10T14:31:59;7.45;;;2.08;;
14294;SDS011;7231;59.370;18.016;2022-11-10T14:34:30;8.63;;;1.80;;
14294;SDS011;7231;59.370;18.016;2022-11-10T14:37:12;9.70;;;2.00;;
14294;SDS011;7231;59.370;18.016;2022-11-10T14:39:42;12.32;;;2.17;;
14294;SDS011;7231;59.370;18.016;2022-11-10T14:42:11;8.50;;;2.20;;
14294;SDS011;7231;59.370;18.016;2022-11-10T14:44:45;14.05;;;2.25;;
14294;SDS011;7231;59.370;18.016;2022-11-10T14:47:21;17.58;;;2.38;;
14294;SDS011;7231;59.370;18.016;2022-11-10T14:50:04;7.72;;;2.50;;
14294;SDS011;7231;59.370;18.016;2022-11-10T14:52:36;12.32;;;2.60;;
14294;SDS011;7231;59.370;18.016;2022-11-10T14:55:07;13.63;;;2.28;;
14294;SDS011;7231;59.370;18.016;2022-11-10T14:57:39;14.38;;;2.50;;
14294;SDS011;7231;59.370;18.016;2022-11-10T15:00:10;16.13;;;2.72;;
14294;SDS011;7231;59.370;18.016;2022-11-10T15:02:42;13.52;;;2.10;;
14294;SDS011;7231;59.370;18.016;2022-11-10T15:05:11;13.45;;;2.60;;
14294;SDS011;7231;59.370;18.016;2022-11-10T15:07:41;11.75;;;2.47;;
14294;SDS011;7231;59.370;18.016;2022-11-10T15:10:15;7.25;;;1.88;;
14294;SDS011;7231;59.370;18.016;2022-11-10T15:12:57;11.05;;;2.13;;
14294;SDS011;7231;59.370;18.016;2022-11-10T15:15:30;8.48;;;1.95;;
14294;SDS011;7231;59.370;18.016;2022-11-10T15:17:59;8.13;;;1.83;;
14294;SDS011;7231;59.370;18.016;2022-11-10T15:20:28;13.98;;;2.20;;
14294;SDS011;7231;59.370;18.016;2022-11-10T15:23:02;11.13;;;2.25;;
14294;SDS011;7231;59.370;18.016;2022-11-10T15:25:34;19.13;;;2.45;;
14294;SDS011;7231;59.370;18.016;2022-11-10T15:28:05;18.67;;;2.65;;
14294;SDS011;7231;59.370;18.016;2022-11-10T15:30:51;12.75;;;2.58;;